createdAt,value
2019-04-06T00:00:06.921Z,18.60
2019-04-06T00:02:37.777Z,19.83
2019-04-06T00:05:08.141Z,19.77
2019-04-06T00:07:37.322Z,19.57
2019-04-06T00:10:07.485Z,19.10
2019-04-06T00:12:36.654Z,20.00
2019-04-06T00:15:06.269Z,19.67
2019-04-06T00:17:35.442Z,19.53
2019-04-06T00:20:05.673Z,18.77
2019-04-06T00:22:35.005Z,20.03
2019-04-06T00:25:04.388Z,19.10
2019-04-06T00:27:33.611Z,21.23
2019-04-06T00:30:03.069Z,19.67
2019-04-06T00:32:36.165Z,20.83
2019-04-06T00:35:05.445Z,20.87
2019-04-06T00:37:34.686Z,20.93
2019-04-06T00:40:03.956Z,19.30
2019-04-06T00:42:33.212Z,20.70
2019-04-06T00:45:02.466Z,22.33
2019-04-06T00:47:31.813Z,21.70
2019-04-06T00:50:01.018Z,20.83
2019-04-06T00:52:30.211Z,21.37
2019-04-06T00:54:59.405Z,22.37
2019-04-06T00:57:28.646Z,22.23
2019-04-06T00:59:57.821Z,22.20
2019-04-06T01:02:27.046Z,21.67
2019-04-06T01:04:56.425Z,20.90
2019-04-06T01:07:25.633Z,21.27
2019-04-06T01:09:54.978Z,21.80
2019-04-06T01:12:24.285Z,21.00
2019-04-06T01:14:53.516Z,21.73
2019-04-06T01:17:22.939Z,21.97
2019-04-06T01:19:52.145Z,22.87
2019-04-06T01:22:21.297Z,23.20
2019-04-06T01:24:50.578Z,22.93
2019-04-06T01:27:19.726Z,22.97
2019-04-06T01:29:48.878Z,22.70
2019-04-06T01:32:18.081Z,21.80
2019-04-06T01:34:47.226Z,21.97
2019-04-06T01:37:16.381Z,22.93
2019-04-06T01:39:45.546Z,22.27
2019-04-06T01:42:14.734Z,22.37
2019-04-06T01:44:43.881Z,22.43
2019-04-06T01:47:13.057Z,21.77
2019-04-06T01:49:42.229Z,22.03
2019-04-06T01:52:11.429Z,22.33
2019-04-06T01:54:40.658Z,21.87
2019-04-06T01:57:09.813Z,21.20
2019-04-06T01:59:39.037Z,20.30
2019-04-06T02:02:33.385Z,21.10
2019-04-06T02:05:03.306Z,21.43
2019-04-06T02:07:32.545Z,20.67
2019-04-06T02:10:01.926Z,20.00
2019-04-06T02:12:31.144Z,20.50
2019-04-06T02:15:00.399Z,19.70
2019-04-06T02:17:29.729Z,19.37
2019-04-06T02:19:58.920Z,19.17
2019-04-06T02:22:28.160Z,19.27
2019-04-06T02:24:57.399Z,20.43
2019-04-06T02:27:26.634Z,18.77
2019-04-06T02:30:13.734Z,19.97
2019-04-06T02:33:07.230Z,21.53
2019-04-06T02:35:42.746Z,20.90
2019-04-06T02:38:18.599Z,18.27
2019-04-06T02:41:02.986Z,19.60
2019-04-06T02:43:34.072Z,19.67
2019-04-06T02:46:03.340Z,20.07
2019-04-06T02:48:32.506Z,18.27
2019-04-06T02:51:01.821Z,20.20
2019-04-06T02:53:31.100Z,20.20
2019-04-06T02:56:00.396Z,19.70
2019-04-06T02:58:29.560Z,17.87
2019-04-06T03:00:58.973Z,18.03
2019-04-06T03:03:28.170Z,19.53
2019-04-06T03:05:57.362Z,18.70
2019-04-06T03:08:26.546Z,18.23
2019-04-06T03:10:55.721Z,18.60
2019-04-06T03:13:25.058Z,17.20
2019-04-06T03:15:54.225Z,18.17
2019-04-06T03:18:23.517Z,17.77
2019-04-06T03:20:52.851Z,18.00
2019-04-06T03:23:24.501Z,18.83
2019-04-06T03:25:52.949Z,18.07
2019-04-06T03:28:22.111Z,18.53
2019-04-06T03:30:51.290Z,18.50
2019-04-06T03:33:20.442Z,18.20
2019-04-06T03:35:51.070Z,17.67
2019-04-06T03:38:20.679Z,18.73
2019-04-06T03:40:49.910Z,18.47
2019-04-06T03:43:19.079Z,17.67
2019-04-06T03:45:48.382Z,19.53
2019-04-06T03:48:17.595Z,17.80
2019-04-06T03:50:46.757Z,19.23
2019-04-06T03:53:16.045Z,18.30
2019-04-06T03:55:45.399Z,18.17
2019-04-06T03:58:14.626Z,18.10
2019-04-06T04:00:43.866Z,18.73
2019-04-06T04:03:13.029Z,18.10
2019-04-06T04:05:42.194Z,19.40
2019-04-06T04:08:11.393Z,17.33
2019-04-06T04:10:42.119Z,18.63
2019-04-06T04:13:11.435Z,17.87
2019-04-06T04:15:40.838Z,18.80
2019-04-06T04:18:10.419Z,18.70
2019-04-06T04:20:39.634Z,20.47
2019-04-06T04:23:08.775Z,17.57
2019-04-06T04:25:37.992Z,18.20
2019-04-06T04:28:07.222Z,17.17
2019-04-06T04:30:36.388Z,16.60
2019-04-06T04:33:05.572Z,17.77
2019-04-06T04:35:34.803Z,17.53
2019-04-06T04:38:04.066Z,17.37
2019-04-06T04:40:33.397Z,17.93
2019-04-06T04:43:02.679Z,16.90
2019-04-06T04:45:31.911Z,17.57
2019-04-06T04:48:01.365Z,17.50
2019-04-06T04:50:30.643Z,16.30
2019-04-06T04:52:59.886Z,16.10
2019-04-06T04:55:29.129Z,16.03
2019-04-06T04:57:58.290Z,17.20
2019-04-06T05:00:27.550Z,16.33
2019-04-06T05:02:56.863Z,16.07
2019-04-06T05:05:26.057Z,15.83
2019-04-06T05:07:55.293Z,15.37
2019-04-06T05:10:24.539Z,15.13
2019-04-06T05:12:53.791Z,15.03
2019-04-06T05:15:34.363Z,15.63
2019-04-06T05:18:03.513Z,15.67
2019-04-06T05:20:32.732Z,15.33
2019-04-06T05:23:01.914Z,15.53
2019-04-06T05:25:31.137Z,14.53
2019-04-06T05:28:00.330Z,15.40
2019-04-06T05:30:29.486Z,14.37
2019-04-06T05:32:58.757Z,14.90
2019-04-06T05:35:27.937Z,15.10
2019-04-06T05:37:57.174Z,14.50
2019-04-06T05:40:26.437Z,15.20
2019-04-06T05:42:55.753Z,14.03
2019-04-06T05:45:25.045Z,15.33
2019-04-06T05:47:54.280Z,14.43
2019-04-06T05:50:23.474Z,14.57
2019-04-06T05:52:52.625Z,15.33
2019-04-06T05:55:24.278Z,15.17
2019-04-06T05:58:02.800Z,15.83
2019-04-06T06:00:24.658Z,14.97
2019-04-06T06:02:54.026Z,15.13
2019-04-06T06:05:23.274Z,15.70
2019-04-06T06:07:53.598Z,15.43
2019-04-06T06:10:22.761Z,15.50
2019-04-06T06:12:52.065Z,15.70
2019-04-06T06:15:21.211Z,16.03
2019-04-06T06:17:50.460Z,15.47
2019-04-06T06:20:19.947Z,14.97
2019-04-06T06:22:49.170Z,16.23
2019-04-06T06:25:18.473Z,16.30
2019-04-06T06:27:48.087Z,16.60
2019-04-06T06:30:17.826Z,16.63
2019-04-06T06:32:46.998Z,16.80
2019-04-06T06:35:16.279Z,17.17
2019-04-06T06:37:45.443Z,17.27
2019-04-06T06:40:14.988Z,16.73
2019-04-06T06:42:44.202Z,16.80
2019-04-06T06:45:13.668Z,17.93
2019-04-06T06:47:42.926Z,17.20
2019-04-06T06:50:12.415Z,18.07
2019-04-06T06:52:41.617Z,17.53
2019-04-06T06:55:11.038Z,17.73
2019-04-06T06:57:40.394Z,17.83
2019-04-06T07:00:10.754Z,19.43
2019-04-06T07:02:39.977Z,20.43
2019-04-06T07:05:09.236Z,19.33
2019-04-06T07:07:38.413Z,17.50
2019-04-06T07:10:08.654Z,17.93
2019-04-06T07:12:37.949Z,18.53
2019-04-06T07:15:08.093Z,19.33
2019-04-06T07:17:37.286Z,19.77
2019-04-06T07:20:07.149Z,19.73
2019-04-06T07:22:36.727Z,19.80
2019-04-06T07:25:06.741Z,18.27
2019-04-06T07:27:35.891Z,17.40
2019-04-06T07:30:06.697Z,18.50
2019-04-06T07:32:36.056Z,17.73
2019-04-06T07:35:06.109Z,18.00
2019-04-06T07:37:35.515Z,19.10
2019-04-06T07:40:06.045Z,18.03
2019-04-06T07:42:35.309Z,17.73
2019-04-06T07:45:05.050Z,17.50
2019-04-06T07:47:34.213Z,16.57
2019-04-06T07:50:03.499Z,17.40
2019-04-06T07:52:32.666Z,17.30
2019-04-06T07:55:02.256Z,18.17
2019-04-06T07:57:31.566Z,17.60
2019-04-06T08:00:01.120Z,16.57
2019-04-06T08:02:42.430Z,17.57
2019-04-06T08:05:11.645Z,18.10
2019-04-06T08:07:40.928Z,18.10
2019-04-06T08:10:10.422Z,18.07
2019-04-06T08:12:39.572Z,17.37
2019-04-06T08:15:11.852Z,17.47
2019-04-06T08:17:40.993Z,17.83
2019-04-06T08:20:10.393Z,17.00
2019-04-06T08:22:39.561Z,15.97
2019-04-06T08:25:09.098Z,16.70
2019-04-06T08:27:38.469Z,15.57
2019-04-06T08:30:09.354Z,17.03
2019-04-06T08:32:38.513Z,16.37
2019-04-06T08:35:08.777Z,17.00
2019-04-06T08:37:38.045Z,16.33
2019-04-06T08:40:07.856Z,15.53
2019-04-06T08:42:37.213Z,14.60
2019-04-06T08:45:07.336Z,15.13
2019-04-06T08:47:36.494Z,15.67
2019-04-06T08:50:07.181Z,16.60
2019-04-06T08:52:36.717Z,16.07
2019-04-06T08:55:06.538Z,16.23
2019-04-06T08:57:35.793Z,15.33
2019-04-06T09:00:05.921Z,16.57
2019-04-06T09:02:35.189Z,17.03
2019-04-06T09:05:04.968Z,16.03
2019-04-06T09:07:34.342Z,16.20
2019-04-06T09:10:03.675Z,16.93
2019-04-06T09:12:33.034Z,17.53
2019-04-06T09:15:02.229Z,17.70
2019-04-06T09:17:31.515Z,18.20
2019-04-06T09:20:00.829Z,19.30
2019-04-06T09:22:30.037Z,18.53
2019-04-06T09:24:59.253Z,17.47
2019-04-06T09:27:28.544Z,17.03
2019-04-06T09:29:57.793Z,16.93
2019-04-06T09:32:27.076Z,18.33
2019-04-06T09:34:56.524Z,17.67
2019-04-06T09:37:25.787Z,17.33
2019-04-06T09:39:55.054Z,15.83
2019-04-06T09:42:24.229Z,16.73
2019-04-06T09:45:06.161Z,15.15
2019-04-06T09:48:00.422Z,17.00
2019-04-06T09:50:42.322Z,17.00
2019-04-06T09:53:29.909Z,16.32
2019-04-06T09:56:24.327Z,16.85
2019-04-06T09:59:15.853Z,17.07
2019-04-06T10:02:02.515Z,16.57
2019-04-06T10:05:03.138Z,18.57
2019-04-06T10:07:57.042Z,17.95
2019-04-06T10:10:48.194Z,17.17
2019-04-06T10:13:42.145Z,17.13
2019-04-06T10:16:32.686Z,18.03
2019-04-06T10:19:21.000Z,18.00
2019-04-06T10:22:18.377Z,17.27
2019-04-06T10:25:24.827Z,18.80
2019-04-06T10:28:16.565Z,17.43
2019-04-06T10:30:58.566Z,17.83
2019-04-06T10:33:43.470Z,17.27
2019-04-06T10:36:37.507Z,16.23
2019-04-06T10:39:12.694Z,16.20
2019-04-06T10:42:00.511Z,16.17
2019-04-06T10:44:46.202Z,15.47
2019-04-06T10:47:52.530Z,15.40
2019-04-06T10:50:55.891Z,16.23
2019-04-06T10:53:40.226Z,15.50
2019-04-06T10:56:26.989Z,16.67
2019-04-06T10:59:08.079Z,15.97
2019-04-06T11:02:08.626Z,16.63
2019-04-06T11:04:45.117Z,15.27
2019-04-06T11:07:36.179Z,16.53
2019-04-06T11:10:24.405Z,16.07
2019-04-06T11:13:05.378Z,15.73
2019-04-06T11:15:52.411Z,16.40
2019-04-06T11:18:50.088Z,16.03
2019-04-06T11:21:32.649Z,17.53
2019-04-06T11:24:19.671Z,17.67
2019-04-06T11:27:06.948Z,16.97
2019-04-06T11:29:54.258Z,18.13
2019-04-06T11:32:41.441Z,18.93
2019-04-06T11:35:38.709Z,17.57
2019-04-06T11:38:20.350Z,17.63
2019-04-06T11:41:12.385Z,19.17
2019-04-06T11:44:03.764Z,18.20
2019-04-06T11:46:49.661Z,17.40
2019-04-06T11:49:41.593Z,17.07
2019-04-06T11:52:28.288Z,17.00
2019-04-06T11:55:31.861Z,18.17
2019-04-06T11:58:22.747Z,17.97
2019-04-06T12:01:03.890Z,19.63
2019-04-06T12:03:55.005Z,19.83
2019-04-06T12:07:01.844Z,19.37
2019-04-06T12:09:49.086Z,19.47
2019-04-06T12:12:35.910Z,20.87
2019-04-06T12:15:28.266Z,20.30
2019-04-06T12:18:07.652Z,21.70
2019-04-06T12:21:04.586Z,22.00
2019-04-06T12:24:04.875Z,20.40
2019-04-06T12:26:51.939Z,20.10
2019-04-06T12:29:49.557Z,21.23
2019-04-06T12:32:40.529Z,20.13
2019-04-06T12:35:31.373Z,18.27
2019-04-06T12:38:10.233Z,19.40
2019-04-06T12:40:48.140Z,20.43
2019-04-06T12:43:31.286Z,17.20
2019-04-06T12:46:20.270Z,17.60
2019-04-06T12:49:04.690Z,15.97
2019-04-06T12:51:40.738Z,16.00
2019-04-06T12:54:27.654Z,20.10
2019-04-06T12:57:04.382Z,24.00
2019-04-06T12:59:51.524Z,26.40
2019-04-06T13:02:45.767Z,25.27
2019-04-06T13:05:33.149Z,28.17
2019-04-06T13:08:11.248Z,26.83
2019-04-06T13:10:49.313Z,27.97
2019-04-06T13:13:34.429Z,28.00
2019-04-06T13:16:13.618Z,27.13
2019-04-06T13:19:17.011Z,26.93
2019-04-06T13:21:58.622Z,28.00
2019-04-06T13:24:40.317Z,29.03
2019-04-06T13:27:37.612Z,28.17
2019-04-06T13:30:40.686Z,28.63
2019-04-06T13:33:31.650Z,30.53
2019-04-06T13:36:27.031Z,30.47
2019-04-06T13:39:05.244Z,30.53
2019-04-06T13:41:53.472Z,32.13
2019-04-06T13:44:40.250Z,32.97
2019-04-06T13:47:52.848Z,29.97
2019-04-06T13:50:34.062Z,32.23
2019-04-06T13:53:10.738Z,32.13
2019-04-06T13:55:53.202Z,32.10
2019-04-06T13:58:40.333Z,32.40
2019-04-06T14:01:28.623Z,34.37
2019-04-06T14:04:19.589Z,33.90
2019-04-06T14:07:07.027Z,36.13
2019-04-06T14:09:58.376Z,37.17
2019-04-06T14:12:45.581Z,37.83
2019-04-06T14:15:40.071Z,35.07
2019-04-06T14:18:28.423Z,35.73
2019-04-06T14:21:29.104Z,39.17
2019-04-06T14:24:17.622Z,35.23
2019-04-06T14:26:57.745Z,36.53
2019-04-06T14:29:37.106Z,35.07
2019-04-06T14:32:28.440Z,25.30
2019-04-06T14:35:29.149Z,17.70
2019-04-06T14:38:23.335Z,13.87
2019-04-06T14:41:11.627Z,13.20
2019-04-06T14:43:58.075Z,13.50
2019-04-06T14:46:52.361Z,13.13
2019-04-06T14:49:40.561Z,14.30
2019-04-06T14:52:26.022Z,13.93
2019-04-06T14:55:04.576Z,12.93
2019-04-06T14:57:51.644Z,15.37
2019-04-06T15:00:34.619Z,16.67
2019-04-06T15:03:18.212Z,19.00
2019-04-06T15:06:13.809Z,20.13
2019-04-06T15:09:08.205Z,21.13
2019-04-06T15:11:46.915Z,21.63
2019-04-06T15:14:28.219Z,24.60
2019-04-06T15:17:16.518Z,29.50
2019-04-06T15:20:03.422Z,28.97
2019-04-06T15:22:46.228Z,24.53
2019-04-06T15:25:33.263Z,24.73
2019-04-06T15:28:20.090Z,24.37
2019-04-06T15:31:20.493Z,23.80
2019-04-06T15:34:11.807Z,23.97
2019-04-06T15:37:01.017Z,27.50
2019-04-06T15:39:43.943Z,27.47
2019-04-06T15:42:22.566Z,33.03
2019-04-06T15:45:12.352Z,33.53
2019-04-06T15:47:50.489Z,40.13
2019-04-06T15:50:36.030Z,39.33
2019-04-06T15:53:28.779Z,41.23
2019-04-06T15:56:17.003Z,39.53
2019-04-06T15:59:08.261Z,42.97
2019-04-06T16:01:44.914Z,43.03
2019-04-06T16:04:41.922Z,46.13
2019-04-06T16:07:33.389Z,52.73
2019-04-06T16:10:10.509Z,50.63
2019-04-06T16:13:10.457Z,44.73
2019-04-06T16:15:55.002Z,41.33
2019-04-06T16:18:53.637Z,52.23
2019-04-06T16:21:42.075Z,46.47
2019-04-06T16:24:42.042Z,46.63
2019-04-06T16:27:33.301Z,46.57
2019-04-06T16:30:21.616Z,45.30
2019-04-06T16:33:09.530Z,45.97
2019-04-06T16:36:12.923Z,44.83
2019-04-06T16:38:59.903Z,46.63
2019-04-06T16:42:00.162Z,43.33
2019-04-06T16:44:43.408Z,41.00
2019-04-06T16:47:37.638Z,44.33
2019-04-06T16:50:31.159Z,40.50
2019-04-06T16:53:10.026Z,42.30
2019-04-06T16:56:03.857Z,43.10
2019-04-06T16:59:03.942Z,42.50
2019-04-06T17:01:37.842Z,40.87
2019-04-06T17:04:29.045Z,39.83
2019-04-06T17:07:13.473Z,43.93
2019-04-06T17:09:53.271Z,47.07
2019-04-06T17:12:40.970Z,44.70
2019-04-06T17:15:47.999Z,42.20
2019-04-06T17:18:48.495Z,46.00
2019-04-06T17:21:39.815Z,43.40
2019-04-06T17:24:28.167Z,44.03
2019-04-06T17:27:11.057Z,44.17
2019-04-06T17:30:14.297Z,38.13
2019-04-06T17:33:17.589Z,54.50
2019-04-06T17:35:54.118Z,43.17
2019-04-06T17:38:42.900Z,39.10
2019-04-06T17:41:29.929Z,38.77
2019-04-06T17:44:17.298Z,34.47
2019-04-06T17:47:18.055Z,37.43
2019-04-06T17:50:12.175Z,35.67
2019-04-06T17:53:12.453Z,32.50
2019-04-06T17:56:16.117Z,32.70
2019-04-06T17:59:00.783Z,31.10
2019-04-06T18:01:44.834Z,29.53
2019-04-06T18:04:29.399Z,30.13
2019-04-06T18:07:17.857Z,29.50
2019-04-06T18:10:15.106Z,27.20
2019-04-06T18:12:56.697Z,26.73
2019-04-06T18:15:26.040Z,26.80
2019-04-06T18:17:55.263Z,28.07
2019-04-06T18:20:24.427Z,25.27
2019-04-06T18:22:53.771Z,26.37
2019-04-06T18:25:23.429Z,26.23
2019-04-06T18:27:52.863Z,27.63
2019-04-06T18:30:22.302Z,26.93
2019-04-06T18:33:01.322Z,26.90
2019-04-06T18:35:25.937Z,26.23
2019-04-06T18:38:23.235Z,28.73
2019-04-06T18:40:52.673Z,28.80
2019-04-06T18:43:22.061Z,29.50
2019-04-06T18:45:51.391Z,26.37
2019-04-06T18:48:20.785Z,26.33
2019-04-06T18:50:50.021Z,24.93
2019-04-06T18:53:19.388Z,25.40
2019-04-06T18:55:48.666Z,24.37
2019-04-06T18:58:17.816Z,24.10
2019-04-06T19:00:46.974Z,25.20
2019-04-06T19:03:16.859Z,23.53
2019-04-06T19:05:46.279Z,25.10
2019-04-06T19:08:15.577Z,23.37
2019-04-06T19:10:45.470Z,22.27
2019-04-06T19:13:14.715Z,22.67
2019-04-06T19:15:44.219Z,23.00
2019-04-06T19:18:13.474Z,21.30
2019-04-06T19:20:42.748Z,21.80
2019-04-06T19:23:12.094Z,18.50
2019-04-06T19:25:41.371Z,18.87
2019-04-06T19:28:11.008Z,19.10
2019-04-06T19:30:40.600Z,18.17
2019-04-06T19:33:21.736Z,18.70
2019-04-06T19:35:40.974Z,19.50
2019-04-06T19:38:10.810Z,18.70
2019-04-06T19:40:40.303Z,21.23
2019-04-06T19:43:09.916Z,20.83
2019-04-06T19:45:39.217Z,19.90
2019-04-06T19:48:10.966Z,20.10
2019-04-06T19:50:40.688Z,20.00
2019-04-06T19:53:10.098Z,20.17
2019-04-06T19:55:39.879Z,19.83
2019-04-06T19:58:09.408Z,19.47
2019-04-06T20:00:39.120Z,20.70
2019-04-06T20:03:08.863Z,20.30
2019-04-06T20:05:39.482Z,20.37
2019-04-06T20:08:09.709Z,21.87
2019-04-06T20:10:38.934Z,20.33
2019-04-06T20:13:08.194Z,21.67
2019-04-06T20:15:37.641Z,21.27
2019-04-06T20:18:07.007Z,21.77
2019-04-06T20:20:36.640Z,23.03
2019-04-06T20:23:06.266Z,22.33
2019-04-06T20:25:36.177Z,21.67
2019-04-06T20:28:05.525Z,22.27
2019-04-06T20:30:34.857Z,30.80
2019-04-06T20:33:04.345Z,29.90
2019-04-06T20:35:33.684Z,26.87
2019-04-06T20:38:02.844Z,27.13
2019-04-06T20:40:32.399Z,23.37
2019-04-06T20:43:01.771Z,23.40
2019-04-06T20:45:31.173Z,21.97
2019-04-06T20:48:00.617Z,21.80
2019-04-06T20:50:29.907Z,19.77
2019-04-06T20:52:59.216Z,19.60
2019-04-06T20:55:28.369Z,18.70
2019-04-06T20:57:57.573Z,19.37
2019-04-06T21:00:26.816Z,19.20
2019-04-06T21:02:56.508Z,18.50
2019-04-06T21:05:25.804Z,19.23
2019-04-06T21:07:55.449Z,17.83
2019-04-06T21:10:24.835Z,18.53
2019-04-06T21:12:56.805Z,19.07
2019-04-06T21:15:26.058Z,18.33
2019-04-06T21:17:55.266Z,19.20
2019-04-06T21:20:24.487Z,17.90
2019-04-06T21:22:53.687Z,18.10
2019-04-06T21:25:23.356Z,17.67
2019-04-06T21:27:52.677Z,18.90
2019-04-06T21:30:22.415Z,19.27
2019-04-06T21:32:52.423Z,19.27
2019-04-06T21:35:21.770Z,21.90
2019-04-06T21:37:51.505Z,21.30
2019-04-06T21:40:21.473Z,23.50
2019-04-06T21:42:51.193Z,22.73
2019-04-06T21:45:20.694Z,23.90
2019-04-06T21:47:50.453Z,25.00
2019-04-06T21:50:19.743Z,25.27
2019-04-06T21:52:49.592Z,28.60
2019-04-06T21:55:19.431Z,29.67
2019-04-06T21:57:48.772Z,28.27
2019-04-06T22:00:30.430Z,29.53
2019-04-06T22:02:59.823Z,29.47
2019-04-06T22:05:29.789Z,28.40
2019-04-06T22:07:59.033Z,29.63
2019-04-06T22:10:28.744Z,28.20
2019-04-06T22:12:58.107Z,26.53
2019-04-06T22:15:27.341Z,27.50
2019-04-06T22:17:56.700Z,28.13
2019-04-06T22:20:26.402Z,31.03
2019-04-06T22:22:56.017Z,30.67
2019-04-06T22:25:25.341Z,31.50
2019-04-06T22:27:56.022Z,29.27
2019-04-06T22:30:25.858Z,31.30
2019-04-06T22:32:55.138Z,30.00
2019-04-06T22:35:24.758Z,30.23
2019-04-06T22:37:55.347Z,29.80
2019-04-06T22:40:24.970Z,29.67
2019-04-06T22:42:57.374Z,29.53
2019-04-06T22:45:27.710Z,30.63
2019-04-06T22:47:57.570Z,27.77
2019-04-06T22:50:26.901Z,24.37
2019-04-06T22:52:56.142Z,25.33
2019-04-06T22:55:25.518Z,23.57
2019-04-06T22:57:54.870Z,24.50
2019-04-06T23:00:33.662Z,23.20
2019-04-06T23:03:25.226Z,24.83
2019-04-06T23:05:58.466Z,27.10
2019-04-06T23:08:27.809Z,26.30
2019-04-06T23:10:56.970Z,28.63
2019-04-06T23:13:26.116Z,29.47
2019-04-06T23:15:55.359Z,29.33
2019-04-06T23:18:25.671Z,30.77
2019-04-06T23:20:55.033Z,29.67
2019-04-06T23:23:24.660Z,29.50
2019-04-06T23:25:54.147Z,28.93
2019-04-06T23:28:23.894Z,31.53
2019-04-06T23:30:53.535Z,29.50
2019-04-06T23:33:22.869Z,30.67
2019-04-06T23:35:52.082Z,28.60
2019-04-06T23:38:21.737Z,30.47
2019-04-06T23:40:51.106Z,30.20
2019-04-06T23:43:20.969Z,30.47
2019-04-06T23:45:50.385Z,31.53
2019-04-06T23:48:19.842Z,31.20
2019-04-06T23:50:49.955Z,32.77
2019-04-06T23:53:19.333Z,30.80
2019-04-06T23:55:49.054Z,32.93
2019-04-06T23:58:18.795Z,32.60
